createdAt,value
2018-07-17T00:04:03.756Z,99892.00
2018-07-17T00:09:07.715Z,99903.00
2018-07-17T00:14:10.912Z,99900.00
2018-07-17T00:19:13.912Z,99908.00
2018-07-17T00:24:16.895Z,99909.00
2018-07-17T00:29:19.909Z,99909.00
2018-07-17T00:34:22.927Z,99898.00
2018-07-17T00:39:25.967Z,99900.00
2018-07-17T00:44:29.066Z,99913.00
2018-07-17T00:49:32.096Z,99906.00
2018-07-17T00:54:35.092Z,99914.00
2018-07-17T00:59:38.088Z,99909.00
2018-07-17T01:04:46.732Z,99907.00
2018-07-17T01:09:55.256Z,99911.00
2018-07-17T01:15:10.314Z,99911.00
2018-07-17T01:20:13.442Z,99902.00
2018-07-17T01:25:16.396Z,99915.00
2018-07-17T01:30:19.605Z,99909.00
2018-07-17T01:35:22.632Z,99904.00
2018-07-17T01:40:25.603Z,99902.00
2018-07-17T01:45:28.596Z,99896.00
2018-07-17T01:50:31.612Z,99906.00
2018-07-17T01:55:34.592Z,99910.00
2018-07-17T02:00:37.592Z,99900.00
2018-07-17T02:05:40.600Z,99909.00
2018-07-17T02:10:43.561Z,99914.00
2018-07-17T02:15:46.548Z,99914.00
2018-07-17T02:20:49.543Z,99920.00
2018-07-17T02:25:52.506Z,99918.00
2018-07-17T02:30:55.551Z,99924.00
2018-07-17T02:35:58.959Z,99919.00
2018-07-17T02:41:01.956Z,99921.00
2018-07-17T02:46:05.060Z,99929.00
2018-07-17T02:51:08.081Z,99929.00
2018-07-17T02:56:11.050Z,99923.00
2018-07-17T03:01:14.174Z,99933.00
2018-07-17T03:06:17.151Z,99939.00
2018-07-17T03:11:20.111Z,99939.00
2018-07-17T03:16:23.115Z,99943.00
2018-07-17T03:21:26.088Z,99948.00
2018-07-17T03:26:29.364Z,99947.00
2018-07-17T03:31:32.377Z,99946.00
2018-07-17T03:36:35.464Z,99954.00
2018-07-17T03:41:38.366Z,99959.00
2018-07-17T03:46:41.320Z,99966.00
2018-07-17T03:51:44.295Z,99967.00
2018-07-17T03:56:47.256Z,99968.00
2018-07-17T04:01:50.407Z,99965.00
2018-07-17T04:06:53.659Z,99974.00
2018-07-17T04:11:56.647Z,99970.00
2018-07-17T04:16:59.748Z,99986.00
2018-07-17T04:22:02.979Z,99976.00
2018-07-17T04:27:06.281Z,99977.00
2018-07-17T04:32:09.486Z,99985.00
2018-07-17T04:37:12.447Z,99980.00
2018-07-17T04:42:15.596Z,100005.00
2018-07-17T04:47:18.804Z,100003.00
2018-07-17T04:52:22.020Z,100005.00
2018-07-17T04:57:25.004Z,100019.00
2018-07-17T05:02:28.084Z,100023.00
2018-07-17T05:07:31.300Z,100029.00
2018-07-17T05:12:34.333Z,100044.00
2018-07-17T05:17:37.380Z,100037.00
2018-07-17T05:22:40.401Z,100038.00
2018-07-17T05:27:43.368Z,100043.00
2018-07-17T05:32:46.767Z,100042.00
2018-07-17T05:37:49.862Z,100052.00
2018-07-17T05:42:53.088Z,100054.00
2018-07-17T05:47:56.067Z,100058.00
2018-07-17T05:52:59.196Z,100067.00
2018-07-17T05:58:02.413Z,100075.00
2018-07-17T06:03:05.399Z,100074.00
2018-07-17T06:08:08.383Z,100086.00
2018-07-17T06:13:11.466Z,100092.00
2018-07-17T06:18:14.444Z,100095.00
2018-07-17T06:23:17.484Z,100095.00
2018-07-17T06:28:20.480Z,100090.00
2018-07-17T06:33:23.477Z,100100.00
2018-07-17T06:38:26.451Z,100093.00
2018-07-17T06:43:29.452Z,100104.00
2018-07-17T06:48:32.508Z,100107.00
2018-07-17T06:53:35.488Z,100098.00
2018-07-17T06:58:38.524Z,100119.00
2018-07-17T07:03:41.508Z,100119.00
2018-07-17T07:08:44.721Z,100113.00
2018-07-17T07:13:47.970Z,100115.00
2018-07-17T07:18:50.976Z,100120.00
2018-07-17T07:23:54.132Z,100111.00
2018-07-17T07:28:57.117Z,100117.00
2018-07-17T07:34:00.157Z,100125.00
2018-07-17T07:39:04.913Z,100123.00
2018-07-17T07:44:07.916Z,100123.00
2018-07-17T07:49:10.969Z,100113.00
2018-07-17T07:54:13.958Z,100125.00
2018-07-17T07:59:17.015Z,100128.00
2018-07-17T08:04:19.988Z,100128.00
2018-07-17T08:09:22.962Z,100117.00
2018-07-17T08:14:25.962Z,100124.00
2018-07-17T08:19:28.963Z,100110.00
2018-07-17T08:24:31.979Z,100116.00
2018-07-17T08:29:35.037Z,100116.00
2018-07-17T08:34:38.009Z,100121.00
2018-07-17T08:39:41.115Z,100123.00
2018-07-17T08:44:44.073Z,100132.00
2018-07-17T08:49:47.193Z,100134.00
2018-07-17T08:54:50.215Z,100137.00
2018-07-17T08:59:53.176Z,100139.00
2018-07-17T09:04:56.163Z,100137.00
2018-07-17T09:09:59.276Z,100134.00
2018-07-17T09:15:02.337Z,100137.00
2018-07-17T09:20:05.632Z,100142.00
2018-07-17T09:25:08.712Z,100137.00
2018-07-17T09:30:11.816Z,100134.00
2018-07-17T09:35:14.950Z,100144.00
2018-07-17T09:40:18.156Z,100137.00
2018-07-17T09:45:21.085Z,100143.00
2018-07-17T09:50:24.039Z,100146.00
2018-07-17T09:55:26.999Z,100139.00
2018-07-17T10:00:38.540Z,100137.00
2018-07-17T10:05:41.532Z,100138.00
2018-07-17T10:10:44.507Z,100137.00
2018-07-17T10:15:47.493Z,100132.00
2018-07-17T10:20:50.485Z,100139.00
2018-07-17T10:25:53.452Z,100134.00
2018-07-17T10:30:56.484Z,100138.00
2018-07-17T10:35:59.554Z,100139.00
2018-07-17T10:41:02.631Z,100136.00
2018-07-17T10:46:05.676Z,100123.00
2018-07-17T10:51:08.760Z,100119.00
2018-07-17T10:56:11.740Z,100127.00
2018-07-17T11:01:14.739Z,100116.00
2018-07-17T11:06:17.808Z,100110.00
2018-07-17T11:11:20.827Z,100118.00
2018-07-17T11:16:24.611Z,100102.00
2018-07-17T11:21:27.669Z,100112.00
2018-07-17T11:26:30.721Z,100101.00
2018-07-17T11:31:33.721Z,100094.00
2018-07-17T11:36:36.730Z,100097.00
2018-07-17T11:41:39.817Z,100087.00
2018-07-17T11:46:42.919Z,100088.00
2018-07-17T11:51:45.905Z,100079.00
2018-07-17T11:56:48.945Z,100066.00
2018-07-17T12:01:51.932Z,100059.00
2018-07-17T12:06:55.056Z,100075.00
2018-07-17T12:11:58.079Z,100076.00
2018-07-17T12:17:01.180Z,100079.00
2018-07-17T12:22:04.217Z,100079.00
2018-07-17T12:27:07.261Z,100063.00
2018-07-17T12:32:10.488Z,100069.00
2018-07-17T12:37:13.539Z,100064.00
2018-07-17T12:42:17.006Z,100058.00
2018-07-17T12:47:20.256Z,100052.00
2018-07-17T12:52:23.267Z,100060.00
2018-07-17T12:57:26.289Z,100062.00
2018-07-17T13:02:29.260Z,100066.00
2018-07-17T13:07:32.311Z,100068.00
2018-07-17T13:12:35.395Z,100059.00
2018-07-17T13:17:38.506Z,100067.00
2018-07-17T13:22:41.629Z,100056.00
2018-07-17T13:27:44.600Z,100060.00
2018-07-17T13:32:47.915Z,100062.00
2018-07-17T13:37:51.026Z,100059.00
2018-07-17T13:42:54.031Z,100060.00
2018-07-17T13:47:57.213Z,100068.00
2018-07-17T13:53:00.444Z,100050.00
2018-07-17T13:58:03.810Z,100063.00
2018-07-17T14:03:06.997Z,100073.00
2018-07-17T14:08:09.984Z,100060.00
2018-07-17T14:13:13.247Z,100066.00
2018-07-17T14:18:16.245Z,100057.00
2018-07-17T14:23:19.270Z,100065.00
2018-07-17T14:28:22.268Z,100058.00
2018-07-17T14:33:25.458Z,100059.00
2018-07-17T14:38:28.484Z,100067.00
2018-07-17T14:43:31.597Z,100068.00
2018-07-17T14:48:37.030Z,100081.00
2018-07-17T14:53:40.076Z,100080.00
2018-07-17T14:58:43.107Z,100090.00
2018-07-17T15:03:46.115Z,100093.00
2018-07-17T15:08:49.085Z,100086.00
2018-07-17T15:13:52.138Z,100111.00
2018-07-17T15:18:55.481Z,100099.00
2018-07-17T15:23:58.508Z,100107.00
2018-07-17T15:29:01.488Z,100113.00
2018-07-17T15:34:04.697Z,100119.00
2018-07-17T15:39:09.717Z,100120.00
2018-07-17T15:44:12.728Z,100117.00
2018-07-17T15:49:15.735Z,100106.00
2018-07-17T15:54:18.729Z,100107.00
2018-07-17T15:59:21.943Z,100097.00
2018-07-17T16:04:25.019Z,100104.00
2018-07-17T16:09:28.595Z,100102.00
2018-07-17T16:14:31.809Z,100107.00
2018-07-17T16:19:34.664Z,100100.00
2018-07-17T16:24:37.898Z,100092.00
2018-07-17T16:29:41.013Z,100098.00
2018-07-17T16:34:44.023Z,100104.00
2018-07-17T16:39:47.016Z,100096.00
2018-07-17T16:44:50.189Z,100089.00
2018-07-17T16:49:53.212Z,100096.00
2018-07-17T16:54:56.258Z,100100.00
2018-07-17T16:59:59.288Z,100100.00
2018-07-17T17:05:02.388Z,100095.00
2018-07-17T17:10:05.428Z,100106.00
2018-07-17T17:15:08.547Z,100115.00
2018-07-17T17:20:11.672Z,100115.00
2018-07-17T17:25:14.740Z,100116.00
2018-07-17T17:30:17.729Z,100120.00
2018-07-17T17:35:20.802Z,100122.00
2018-07-17T17:40:23.796Z,100117.00
2018-07-17T17:45:26.858Z,100117.00
2018-07-17T17:50:29.971Z,100116.00
2018-07-17T17:55:33.101Z,100114.00
2018-07-17T18:00:36.155Z,100120.00
2018-07-17T18:05:39.138Z,100125.00
2018-07-17T18:10:42.182Z,100125.00
2018-07-17T18:15:45.227Z,100123.00
2018-07-17T18:20:48.271Z,100124.00
2018-07-17T18:25:51.368Z,100115.00
2018-07-17T18:30:54.657Z,100126.00
2018-07-17T18:35:57.707Z,100130.00
2018-07-17T18:41:00.901Z,100128.00
2018-07-17T18:46:04.135Z,100128.00
2018-07-17T18:51:07.172Z,100133.00
2018-07-17T18:56:10.544Z,100135.00
2018-07-17T19:01:13.656Z,100136.00
2018-07-17T19:06:16.750Z,100144.00
2018-07-17T19:11:19.861Z,100147.00
2018-07-17T19:16:22.834Z,100153.00
2018-07-17T19:21:25.901Z,100150.00
2018-07-17T19:26:29.037Z,100155.00
2018-07-17T19:31:32.064Z,100158.00
2018-07-17T19:36:35.071Z,100169.00
2018-07-17T19:41:38.139Z,100179.00
2018-07-17T19:46:41.198Z,100192.00
2018-07-17T19:51:44.262Z,100197.00
2018-07-17T19:56:47.294Z,100189.00
2018-07-17T20:01:50.313Z,100197.00
2018-07-17T20:06:53.335Z,100203.00
2018-07-17T20:11:56.856Z,100194.00
2018-07-17T20:17:00.164Z,100201.00
2018-07-17T20:22:03.244Z,100199.00
2018-07-17T20:27:06.485Z,100202.00
2018-07-17T20:32:09.597Z,100189.00
2018-07-17T20:37:12.803Z,100196.00
2018-07-17T20:42:15.800Z,100192.00
2018-07-17T20:47:18.838Z,100196.00
2018-07-17T20:52:21.843Z,100198.00
2018-07-17T20:57:24.835Z,100199.00
2018-07-17T21:02:27.865Z,100203.00
2018-07-17T21:07:30.917Z,100209.00
2018-07-17T21:12:33.993Z,100213.00
2018-07-17T21:17:37.064Z,100213.00
2018-07-17T21:22:40.100Z,100213.00
2018-07-17T21:27:43.134Z,100210.00
2018-07-17T21:32:46.518Z,100207.00
2018-07-17T21:37:49.524Z,100209.00
2018-07-17T21:42:52.490Z,100207.00
2018-07-17T21:47:55.476Z,100217.00
2018-07-17T21:52:58.551Z,100220.00
2018-07-17T21:58:01.539Z,100211.00
2018-07-17T22:03:04.576Z,100214.00
2018-07-17T22:08:07.629Z,100221.00
2018-07-17T22:13:10.624Z,100220.00
2018-07-17T22:18:13.640Z,100216.00
2018-07-17T22:23:16.648Z,100223.00
2018-07-17T22:28:19.655Z,100227.00
2018-07-17T22:33:22.681Z,100235.00
2018-07-17T22:38:25.723Z,100221.00
2018-07-17T22:43:28.697Z,100229.00
2018-07-17T22:48:31.863Z,100222.00
2018-07-17T22:53:35.024Z,100227.00
2018-07-17T22:58:38.099Z,100231.00
2018-07-17T23:03:41.026Z,100226.00
2018-07-17T23:08:44.103Z,100228.00
2018-07-17T23:13:47.218Z,100230.00
2018-07-17T23:18:50.335Z,100225.00
2018-07-17T23:23:53.320Z,100234.00
2018-07-17T23:28:56.346Z,100234.00
2018-07-17T23:33:59.311Z,100241.00
2018-07-17T23:39:02.413Z,100240.00
2018-07-17T23:44:05.439Z,100248.00
2018-07-17T23:49:12.323Z,100248.00
2018-07-17T23:54:15.327Z,100261.00
2018-07-17T23:59:18.288Z,100257.00
